Time;durP1;ratioP1;P1;durP2;ratioP2;P2;SDS_P1;SDS_P2;PMS_P1;PMS_P2;Temp;Humidity;BMP_temperature;BMP_pressure;BME280_temperature;BME280_humidity;BME280_pressure;Samples;Min_cycle;Max_cycle;Signal;HPM_P1;HPM_P2
2021/01/02 00:02:43;;;;;;;4.18;3.70;;;17.30;54.50;;;;;;5067284;28;20998;-60
2021/01/02 00:05:12;;;;;;;5.35;3.75;;;17.30;54.50;;;;;;5085007;28;20256;-59
2021/01/02 00:07:50;;;;;;;5.03;3.63;;;17.30;54.50;;;;;;5084925;28;20248;-61
2021/01/02 00:10:19;;;;;;;4.68;3.60;;;17.30;55.20;;;;;;5084797;28;20204;-60
2021/01/02 00:13:13;;;;;;;4.10;3.70;;;17.30;54.50;;;;;;5067298;28;20208;-58
2021/01/02 00:16:07;;;;;;;4.80;4.18;;;17.20;54.50;;;;;;5069972;28;20170;-61
2021/01/02 00:18:37;;;;;;;5.07;3.60;;;17.20;54.50;;;;;;5069701;28;20915;-60
2021/01/02 00:21:26;;;;;;;4.50;3.90;;;17.20;54.50;;;;;;5085121;28;20200;-61
2021/01/02 00:24:21;;;;;;;5.38;4.07;;;17.20;54.60;;;;;;5084722;28;20628;-60
2021/01/02 00:26:47;;;;;;;5.43;3.88;;;17.20;54.60;;;;;;5066380;28;20169;-60
2021/01/02 00:29:19;;;;;;;5.10;3.60;;;17.10;54.60;;;;;;5084713;28;20210;-58
2021/01/02 00:32:14;;;;;;;6.05;3.97;;;17.10;54.60;;;;;;5084520;28;20277;-54
2021/01/02 00:35:01;;;;;;;4.95;3.67;;;17.10;54.60;;;;;;5068908;28;20963;-56
2021/01/02 00:38:04;;;;;;;4.18;3.78;;;17.10;54.60;;;;;;5067525;28;20530;-58
2021/01/02 00:40:30;;;;;;;5.72;3.90;;;17.10;54.60;;;;;;5084616;28;20658;-60
2021/01/02 00:42:57;;;;;;;5.10;4.28;;;17.10;54.60;;;;;;5084388;28;20234;-59
2021/01/02 00:45:23;;;;;;;4.18;3.50;;;17.10;54.60;;;;;;5084298;28;20266;-60
2021/01/02 00:47:50;;;;;;;3.95;3.55;;;17.00;54.60;;;;;;5084630;28;20177;-60
2021/01/02 00:50:16;;;;;;;4.20;3.80;;;17.00;54.60;;;;;;5084440;28;20690;-59
2021/01/02 00:52:45;;;;;;;4.90;4.18;;;17.00;54.60;;;;;;5084426;28;20174;-59
2021/01/02 00:55:25;;;;;;;5.43;3.58;;;17.00;54.60;;;;;;5084170;28;20173;-61
2021/01/02 00:58:40;;;;;;;4.20;3.80;;;17.00;54.60;;;;;;5084458;28;20351;-59
2021/01/02 01:01:07;;;;;;;6.85;4.30;;;17.00;54.60;;;;;;4985618;28;20191;-60
2021/01/02 01:04:01;;;;;;;3.50;3.20;;;16.90;54.60;;;;;;5075716;28;20197;-60
2021/01/02 01:06:29;;;;;;;4.07;3.67;;;16.90;54.60;;;;;;5066498;28;20182;-59
2021/01/02 01:08:54;;;;;;;4.03;3.63;;;16.90;54.70;;;;;;5083832;28;20306;-59
2021/01/02 01:11:21;;;;;;;5.03;4.45;;;16.90;54.60;;;;;;5066378;28;20220;-59
2021/01/02 01:13:48;;;;;;;4.78;3.80;;;16.90;54.60;;;;;;5084535;28;20170;-59
2021/01/02 01:16:14;;;;;;;4.57;3.78;;;16.90;54.60;;;;;;5066516;28;20170;-60
2021/01/02 01:19:05;;;;;;;3.88;3.45;;;16.90;54.60;;;;;;5066564;28;20692;-60
2021/01/02 01:21:34;;;;;;;4.47;3.97;;;16.90;54.60;;;;;;5068775;28;21003;-59
2021/01/02 01:24:13;;;;;;;5.05;4.05;;;16.90;54.60;;;;;;5084276;28;20174;-60
2021/01/02 01:27:05;;;;;;;4.30;3.90;;;16.80;54.60;;;;;;5083675;28;20181;-59
2021/01/02 01:29:49;;;;;;;4.40;4.00;;;16.80;54.60;;;;;;5084071;28;20217;-58
2021/01/02 01:32:24;;;;;;;4.18;3.72;;;16.80;54.60;;;;;;5083712;28;20185;-56
2021/01/02 01:35:00;;;;;;;4.50;4.10;;;16.80;54.70;;;;;;5084239;28;20215;-60
2021/01/02 01:37:35;;;;;;;4.25;3.85;;;16.80;54.70;;;;;;5084148;28;20169;-59
2021/01/02 01:40:01;;;;;;;4.97;4.05;;;16.80;54.60;;;;;;5065786;28;20173;-60
2021/01/02 01:42:45;;;;;;;4.47;3.72;;;16.80;54.70;;;;;;5083544;28;20570;-58
2021/01/02 01:45:42;;;;;;;4.25;3.85;;;16.80;54.70;;;;;;5065874;28;20223;-61
2021/01/02 01:48:12;;;;;;;4.38;3.75;;;16.80;54.70;;;;;;5065541;28;20630;-60
2021/01/02 01:50:57;;;;;;;4.53;3.55;;;16.80;54.70;;;;;;5087198;28;20209;-59
2021/01/02 01:53:50;;;;;;;4.38;3.97;;;16.70;54.70;;;;;;5088011;28;20208;-60
2021/01/02 01:56:16;;;;;;;3.88;3.58;;;16.70;54.70;;;;;;5072175;28;20312;-60
2021/01/02 01:58:43;;;;;;;4.40;4.00;;;16.70;54.70;;;;;;5087451;28;20182;-60
2021/01/02 02:01:08;;;;;;;4.93;4.38;;;16.70;54.70;;;;;;5069572;28;20170;-59
2021/01/02 02:03:47;;;;;;;4.97;4.47;;;16.70;54.70;;;;;;5087804;28;20658;-58
2021/01/02 02:06:29;;;;;;;5.60;4.22;;;16.70;54.70;;;;;;5069605;28;20181;-58
2021/01/02 02:08:59;;;;;;;4.57;3.80;;;16.70;54.70;;;;;;5087425;28;20233;-60
2021/01/02 02:11:43;;;;;;;4.28;3.75;;;16.60;54.60;;;;;;5087578;28;20231;-56
2021/01/02 02:14:16;;;;;;;4.32;3.92;;;16.60;54.70;;;;;;5087357;28;20165;-59
2021/01/02 02:16:52;;;;;;;4.35;3.92;;;16.60;54.70;;;;;;5087207;28;20277;-59
2021/01/02 02:19:55;;;;;;;4.05;3.65;;;16.60;54.70;;;;;;5069747;28;20170;-60
2021/01/02 02:22:24;;;;;;;4.20;3.75;;;16.60;54.70;;;;;;5087238;28;20185;-59
2021/01/02 02:24:54;;;;;;;6.25;4.50;;;16.60;54.70;;;;;;5087501;28;20252;-59
2021/01/02 02:27:27;;;;;;;4.13;3.80;;;16.60;54.60;;;;;;5086778;28;20245;-58
2021/01/02 02:30:04;;;;;;;4.50;4.00;;;16.60;54.70;;;;;;5086953;28;20320;-58
2021/01/02 02:32:34;;;;;;;4.10;3.65;;;16.60;54.80;;;;;;5086864;28;20205;-58
2021/01/02 02:35:04;;;;;;;4.18;3.60;;;16.60;54.70;;;;;;5086377;28;20181;-54
2021/01/02 02:37:30;;;;;;;4.28;3.88;;;16.60;54.70;;;;;;5068999;28;20239;-53
2021/01/02 02:39:55;;;;;;;4.30;3.90;;;16.60;54.80;;;;;;5086760;28;20177;-58
2021/01/02 02:42:21;;;;;;;3.88;3.58;;;16.50;54.70;;;;;;5086954;28;20611;-59
2021/01/02 02:44:47;;;;;;;4.03;3.63;;;16.50;54.70;;;;;;5068704;28;20515;-60
2021/01/02 02:47:14;;;;;;;4.97;3.70;;;16.50;54.70;;;;;;5068632;28;20170;-59
2021/01/02 02:49:39;;;;;;;4.38;3.95;;;16.50;54.70;;;;;;5068684;28;20209;-59
2021/01/02 02:52:36;;;;;;;5.20;4.70;;;16.50;54.70;;;;;;5068566;28;20178;-56
2021/01/02 02:55:02;;;;;;;4.80;4.10;;;16.40;54.70;;;;;;5086563;28;20616;-58
2021/01/02 02:57:32;;;;;;;4.70;4.20;;;16.50;54.70;;;;;;5086477;28;20184;-59
2021/01/02 02:59:58;;;;;;;4.10;3.80;;;16.50;54.80;;;;;;5068309;28;20173;-56
2021/01/02 03:02:25;;;;;;;5.63;4.90;;;16.50;54.70;;;;;;5085681;28;20619;-59
2021/01/02 03:04:50;;;;;;;4.50;4.10;;;16.50;54.80;;;;;;5068668;28;20181;-54
2021/01/02 03:07:16;;;;;;;4.43;4.00;;;16.50;54.80;;;;;;5067965;28;20178;-55
2021/01/02 03:09:42;;;;;;;4.00;3.70;;;16.40;54.70;;;;;;5067822;28;20259;-59
2021/01/02 03:12:07;;;;;;;4.65;4.25;;;16.40;54.70;;;;;;5067556;28;20209;-57
2021/01/02 03:14:33;;;;;;;4.22;3.83;;;16.40;54.70;;;;;;5085775;28;20178;-60
2021/01/02 03:16:59;;;;;;;4.45;4.05;;;16.40;54.70;;;;;;5086113;28;20256;-59
2021/01/02 03:19:33;;;;;;;4.28;3.88;;;16.40;54.70;;;;;;5086042;28;20262;-58
2021/01/02 03:21:59;;;;;;;3.78;3.47;;;16.40;54.70;;;;;;5086349;28;20212;-59
2021/01/02 03:24:25;;;;;;;3.88;3.55;;;16.40;54.70;;;;;;5085942;28;20266;-58
2021/01/02 03:26:51;;;;;;;4.15;3.85;;;16.40;54.70;;;;;;5085687;28;20678;-58
2021/01/02 03:29:16;;;;;;;4.07;3.67;;;16.40;54.70;;;;;;5085323;28;20209;-53
2021/01/02 03:31:42;;;;;;;4.38;3.97;;;16.40;54.80;;;;;;5085646;28;20596;-57
2021/01/02 03:34:07;;;;;;;4.13;3.72;;;16.30;54.70;;;;;;5085581;28;20181;-58
2021/01/02 03:36:33;;;;;;;4.05;3.75;;;16.30;54.70;;;;;;5085697;28;20165;-58
2021/01/02 03:38:58;;;;;;;4.13;3.83;;;16.30;54.70;;;;;;5085686;28;20178;-57
2021/01/02 03:41:25;;;;;;;4.00;3.70;;;16.30;54.70;;;;;;5085596;28;20173;-58
2021/01/02 03:43:50;;;;;;;4.15;3.75;;;16.30;54.70;;;;;;5085384;28;20242;-60
2021/01/02 03:46:16;;;;;;;4.00;3.70;;;16.30;54.70;;;;;;5085655;28;20173;-60
2021/01/02 03:48:41;;;;;;;4.00;3.70;;;16.30;54.70;;;;;;5085119;28;20288;-57
2021/01/02 03:51:07;;;;;;;4.13;3.72;;;16.30;54.70;;;;;;5085143;28;20188;-58
2021/01/02 03:53:33;;;;;;;4.50;4.10;;;16.30;54.70;;;;;;5085271;28;20178;-59
2021/01/02 03:55:58;;;;;;;3.97;3.58;;;16.30;54.70;;;;;;5085230;28;20166;-57
2021/01/02 03:58:24;;;;;;;4.43;4.03;;;16.20;54.70;;;;;;5085184;28;20182;-59
2021/01/02 04:00:49;;;;;;;5.15;3.97;;;16.20;54.70;;;;;;5085325;28;20170;-59
2021/01/02 04:03:15;;;;;;;4.32;3.92;;;16.20;54.70;;;;;;5085439;28;20189;-59
2021/01/02 04:05:46;;;;;;;4.07;3.70;;;16.20;54.70;;;;;;5085586;28;20252;-58
2021/01/02 04:08:12;;;;;;;3.80;3.50;;;16.20;54.70;;;;;;5084953;28;20174;-59
2021/01/02 04:10:38;;;;;;;4.10;3.70;;;16.20;54.70;;;;;;5084980;28;20166;-58
2021/01/02 04:13:03;;;;;;;4.13;3.83;;;16.20;54.70;;;;;;5084904;28;20170;-59
2021/01/02 04:15:29;;;;;;;3.97;3.60;;;16.20;54.70;;;;;;5085035;28;20243;-60
2021/01/02 04:17:54;;;;;;;4.97;4.40;;;16.20;54.70;;;;;;5085163;28;20166;-59
2021/01/02 04:20:20;;;;;;;4.10;3.70;;;16.20;54.70;;;;;;5084982;28;20231;-60
2021/01/02 04:22:46;;;;;;;3.92;3.58;;;16.20;54.70;;;;;;5085027;28;20184;-59
2021/01/02 04:25:11;;;;;;;4.40;4.00;;;16.10;54.60;;;;;;5085392;28;20178;-59
2021/01/02 04:27:37;;;;;;;4.57;4.18;;;16.20;54.70;;;;;;5084722;28;20660;-58
2021/01/02 04:30:06;;;;;;;4.40;4.00;;;16.10;54.60;;;;;;5084644;28;20209;-57
2021/01/02 04:32:32;;;;;;;4.18;3.78;;;16.20;54.70;;;;;;5084633;28;20265;-55
2021/01/02 04:34:57;;;;;;;4.40;4.00;;;16.10;54.70;;;;;;5085168;28;20698;-56
2021/01/02 04:37:30;;;;;;;4.97;4.47;;;16.10;54.70;;;;;;5066540;28;20178;-57
2021/01/02 04:39:55;;;;;;;4.43;4.03;;;16.10;55.10;;;;;;5084216;28;20182;-59
2021/01/02 04:42:24;;;;;;;4.72;4.32;;;16.10;54.70;;;;;;5084672;28;20174;-58
2021/01/02 04:44:51;;;;;;;4.85;4.35;;;16.10;54.70;;;;;;5084210;28;20178;-59
2021/01/02 04:47:18;;;;;;;4.03;3.65;;;16.10;54.60;;;;;;5084326;28;20695;-57
2021/01/02 04:49:43;;;;;;;4.43;4.03;;;16.10;54.70;;;;;;5084361;28;20201;-55
2021/01/02 04:52:09;;;;;;;5.45;4.57;;;16.10;54.70;;;;;;5084690;28;20539;-56
2021/01/02 04:54:35;;;;;;;4.80;4.30;;;16.10;54.70;;;;;;5066338;28;20530;-58
2021/01/02 04:57:00;;;;;;;4.50;4.10;;;16.10;54.60;;;;;;5066471;28;20707;-59
2021/01/02 04:59:29;;;;;;;4.57;4.18;;;16.00;54.60;;;;;;5084344;28;20174;-56
2021/01/02 05:01:54;;;;;;;5.43;4.88;;;16.00;54.60;;;;;;5084236;28;20166;-56
2021/01/02 05:04:21;;;;;;;4.40;4.00;;;16.10;54.60;;;;;;5066473;28;20558;-59
2021/01/02 05:06:46;;;;;;;5.10;4.60;;;16.00;54.60;;;;;;5084108;28;20264;-57
2021/01/02 05:09:12;;;;;;;4.57;4.18;;;16.00;54.60;;;;;;5084049;28;20219;-55
2021/01/02 05:11:38;;;;;;;5.20;4.65;;;16.00;54.60;;;;;;5084251;28;20196;-57
2021/01/02 05:14:04;;;;;;;5.05;4.60;;;16.00;54.50;;;;;;5084003;28;20673;-59
2021/01/02 05:16:41;;;;;;;5.03;4.63;;;16.00;54.50;;;;;;5083840;28;20215;-58
2021/01/02 05:19:14;;;;;;;5.15;4.65;;;16.00;54.50;;;;;;5084041;28;21014;-57
2021/01/02 05:21:47;;;;;;;4.65;4.25;;;16.00;54.60;;;;;;5084049;28;20177;-58
2021/01/02 05:24:19;;;;;;;4.53;4.13;;;15.90;54.50;;;;;;5085218;28;20643;-59
2021/01/02 05:26:45;;;;;;;4.97;4.57;;;15.90;54.50;;;;;;5087511;28;20552;-59
2021/01/02 05:29:21;;;;;;;5.38;4.95;;;16.00;54.50;;;;;;5088134;28;20205;-58
2021/01/02 05:32:01;;;;;;;4.68;4.22;;;15.90;54.50;;;;;;5088109;28;20177;-58
2021/01/02 05:34:28;;;;;;;5.65;4.68;;;15.90;54.50;;;;;;5088404;28;20162;-56
2021/01/02 05:37:07;;;;;;;4.70;4.30;;;15.90;54.50;;;;;;5088134;28;20209;-58
2021/01/02 05:39:52;;;;;;;5.80;5.30;;;15.90;54.60;;;;;;5088167;28;20639;-58
2021/01/02 05:42:20;;;;;;;5.38;4.88;;;15.90;54.40;;;;;;5088065;28;20170;-59
2021/01/02 05:44:45;;;;;;;7.90;4.63;;;15.90;54.50;;;;;;5088176;28;20671;-60
2021/01/02 05:47:12;;;;;;;5.32;4.82;;;15.90;54.40;;;;;;5087992;28;20198;-60
2021/01/02 05:49:41;;;;;;;5.63;5.13;;;15.90;54.40;;;;;;5069780;28;20202;-60
2021/01/02 05:52:07;;;;;;;5.45;4.95;;;15.90;54.40;;;;;;5088091;28;20623;-59
2021/01/02 05:54:34;;;;;;;5.40;4.90;;;15.90;54.50;;;;;;5087940;28;20178;-57
2021/01/02 05:57:04;;;;;;;4.90;4.50;;;15.90;54.50;;;;;;5087702;28;20178;-58
2021/01/02 05:59:37;;;;;;;4.70;4.20;;;15.90;54.60;;;;;;5087456;28;20230;-56
2021/01/02 06:02:31;;;;;;;5.28;4.80;;;15.90;54.60;;;;;;5087530;28;20170;-59
2021/01/02 06:05:04;;;;;;;4.82;4.43;;;15.90;54.70;;;;;;5087508;28;20183;-57
2021/01/02 06:07:40;;;;;;;4.13;3.83;;;16.10;54.80;;;;;;5087417;28;20208;-56
2021/01/02 06:10:10;;;;;;;4.32;3.95;;;16.30;54.80;;;;;;5087359;28;20668;-60
2021/01/02 06:12:39;;;;;;;4.60;4.20;;;16.60;54.50;;;;;;5087381;28;20216;-60
2021/01/02 06:15:07;;;;;;;4.68;4.28;;;16.80;54.10;;;;;;5087061;28;20606;-59
2021/01/02 06:17:37;;;;;;;4.18;3.78;;;17.20;53.50;;;;;;5087490;28;20193;-61
2021/01/02 06:20:23;;;;;;;3.85;3.55;;;17.50;52.70;;;;;;5087358;28;20192;-60
2021/01/02 06:22:48;;;;;;;3.60;3.30;;;17.90;52.20;;;;;;5086852;28;20185;-60
2021/01/02 06:25:14;;;;;;;4.40;3.97;;;18.20;51.60;;;;;;5068865;28;20542;-59
2021/01/02 06:27:40;;;;;;;3.65;3.35;;;18.40;51.20;;;;;;5087289;28;20643;-59
2021/01/02 06:30:06;;;;;;;3.80;3.50;;;18.60;51.00;;;;;;5069229;28;20210;-59
2021/01/02 06:32:32;;;;;;;3.72;3.42;;;18.70;50.80;;;;;;5087281;28;20185;-58
2021/01/02 06:35:10;;;;;;;4.38;4.05;;;18.80;50.60;;;;;;5069168;28;20180;-59
2021/01/02 06:37:55;;;;;;;3.70;3.40;;;18.80;50.50;;;;;;5086981;28;20244;-59
2021/01/02 06:40:28;;;;;;;4.00;3.65;;;18.90;50.50;;;;;;5086941;28;20589;-60
2021/01/02 06:42:58;;;;;;;3.45;3.15;;;18.90;50.60;;;;;;5086797;28;20674;-61
2021/01/02 06:45:36;;;;;;;3.90;3.60;;;18.80;50.60;;;;;;5086707;28;20181;-60
2021/01/02 06:48:31;;;;;;;3.72;3.42;;;18.80;50.60;;;;;;5085929;28;20182;-60
2021/01/02 06:51:01;;;;;;;3.83;3.53;;;18.80;50.70;;;;;;5069066;28;20533;-58
2021/01/02 06:53:31;;;;;;;4.00;3.60;;;18.80;50.80;;;;;;5086583;28;20178;-59
2021/01/02 06:56:06;;;;;;;3.70;3.40;;;18.70;50.80;;;;;;5086738;28;20261;-61
2021/01/02 06:58:36;;;;;;;3.90;3.60;;;18.70;51.00;;;;;;5086243;28;20520;-61
2021/01/02 07:01:06;;;;;;;3.70;3.40;;;18.60;51.20;;;;;;5086266;28;20181;-60
2021/01/02 07:03:45;;;;;;;4.25;3.95;;;18.40;51.30;;;;;;5086757;28;20173;-59
2021/01/02 07:06:23;;;;;;;3.83;3.53;;;18.40;51.50;;;;;;5086463;28;20166;-58
2021/01/02 07:08:58;;;;;;;4.03;3.63;;;18.20;51.80;;;;;;5086261;28;20201;-54
2021/01/02 07:11:27;;;;;;;3.80;3.50;;;18.20;51.90;;;;;;5086158;28;20532;-58
2021/01/02 07:14:14;;;;;;;4.53;4.13;;;18.10;52.00;;;;;;5086347;28;20227;-58
2021/01/02 07:17:11;;;;;;;4.25;3.90;;;18.10;52.00;;;;;;5072577;28;20189;-58
2021/01/02 07:19:41;;;;;;;3.75;3.45;;;18.10;52.10;;;;;;5083498;28;20194;-60
2021/01/02 07:22:21;;;;;;;4.30;4.00;;;18.10;52.10;;;;;;5085847;28;20185;-59
2021/01/02 07:24:48;;;;;;;3.90;3.60;;;18.10;52.00;;;;;;5085997;28;20205;-59
2021/01/02 07:27:20;;;;;;;4.32;3.95;;;18.20;52.00;;;;;;5086163;28;20280;-59
2021/01/02 07:30:14;;;;;;;4.28;3.88;;;18.20;52.00;;;;;;5085843;28;20193;-56
2021/01/02 07:32:43;;;;;;;4.30;3.90;;;18.20;51.90;;;;;;5081284;28;20543;-59
2021/01/02 07:35:10;;;;;;;4.28;3.88;;;18.20;51.90;;;;;;5085711;28;20174;-59
2021/01/02 07:37:37;;;;;;;4.00;3.67;;;18.10;52.00;;;;;;5085891;28;20173;-59
2021/01/02 07:40:13;;;;;;;4.35;3.95;;;18.00;52.10;;;;;;5085455;28;20193;-59
2021/01/02 07:42:52;;;;;;;4.35;3.95;;;17.90;52.30;;;;;;5085826;28;20215;-60
2021/01/02 07:45:22;;;;;;;4.75;4.28;;;17.90;52.40;;;;;;5069822;28;20227;-60
2021/01/02 07:47:55;;;;;;;4.63;4.22;;;17.80;52.50;;;;;;5084696;28;20170;-60
2021/01/02 07:50:21;;;;;;;4.70;4.22;;;17.80;52.60;;;;;;5085405;28;20209;-60
2021/01/02 07:52:48;;;;;;;4.43;4.03;;;17.80;52.60;;;;;;5067511;28;20219;-60
2021/01/02 07:55:14;;;;;;;4.30;3.90;;;17.90;52.60;;;;;;5085680;28;20257;-60
2021/01/02 07:57:40;;;;;;;4.00;3.70;;;17.80;52.60;;;;;;5085330;28;20178;-59
2021/01/02 08:00:07;;;;;;;4.40;4.00;;;17.90;52.50;;;;;;5085198;28;20180;-60
2021/01/02 08:02:32;;;;;;;4.03;3.72;;;18.00;52.50;;;;;;5085509;28;20174;-59
2021/01/02 08:04:58;;;;;;;5.13;4.63;;;17.90;52.40;;;;;;5084969;28;20177;-60
2021/01/02 08:07:24;;;;;;;4.68;4.28;;;17.90;52.50;;;;;;5085299;28;20611;-57
2021/01/02 08:09:49;;;;;;;4.88;4.47;;;17.80;52.60;;;;;;5084959;28;20558;-59
2021/01/02 08:12:17;;;;;;;4.55;4.15;;;17.80;52.80;;;;;;5084817;28;20195;-58
2021/01/02 08:14:47;;;;;;;5.95;4.43;;;17.70;52.90;;;;;;5084863;28;20187;-59
2021/01/02 08:17:16;;;;;;;4.85;4.45;;;17.60;52.90;;;;;;5084987;28;20170;-60
2021/01/02 08:19:48;;;;;;;4.53;4.13;;;17.60;53.00;;;;;;5085080;28;20356;-60
2021/01/02 08:22:25;;;;;;;4.75;4.35;;;17.60;53.00;;;;;;5085017;28;20332;-59
2021/01/02 08:24:55;;;;;;;5.28;4.78;;;17.60;52.90;;;;;;5084985;28;20178;-57
2021/01/02 08:27:21;;;;;;;5.10;4.70;;;17.70;52.90;;;;;;5084597;28;20201;-58
2021/01/02 08:29:46;;;;;;;5.05;4.65;;;17.70;52.80;;;;;;5066797;28;20613;-59
2021/01/02 08:32:12;;;;;;;5.32;4.82;;;17.70;52.70;;;;;;5066301;28;20588;-58
2021/01/02 08:34:37;;;;;;;4.60;4.20;;;17.70;52.80;;;;;;5066766;28;20223;-59
2021/01/02 08:37:07;;;;;;;4.95;4.50;;;17.70;52.90;;;;;;5084864;28;20174;-60
2021/01/02 08:39:33;;;;;;;4.85;4.35;;;17.60;53.00;;;;;;5084362;28;20212;-60
2021/01/02 08:41:59;;;;;;;4.30;4.00;;;17.60;53.10;;;;;;5084475;28;20169;-60
2021/01/02 08:44:30;;;;;;;5.10;4.60;;;17.50;53.20;;;;;;5084676;28;20647;-60
2021/01/02 08:46:55;;;;;;;4.93;4.25;;;17.50;53.30;;;;;;5084078;28;20181;-61
2021/01/02 08:49:44;;;;;;;4.82;4.43;;;17.40;53.20;;;;;;5084490;28;20209;-61
2021/01/02 08:52:12;;;;;;;5.18;4.72;;;17.50;53.20;;;;;;5084693;28;20170;-60
2021/01/02 08:54:38;;;;;;;4.95;4.55;;;17.50;53.10;;;;;;5084555;28;20178;-60
2021/01/02 08:57:22;;;;;;;5.03;4.57;;;17.60;53.00;;;;;;5084363;28;20186;-59
2021/01/02 08:59:48;;;;;;;4.82;4.43;;;17.60;53.00;;;;;;5083251;28;20265;-60
2021/01/02 09:02:17;;;;;;;5.72;5.22;;;17.60;52.90;;;;;;5084397;28;20290;-59
2021/01/02 09:04:42;;;;;;;4.97;4.57;;;17.50;53.00;;;;;;5084587;28;20180;-59
2021/01/02 09:07:08;;;;;;;4.68;4.28;;;17.50;53.10;;;;;;5084150;28;20288;-61
2021/01/02 09:09:33;;;;;;;4.90;4.50;;;17.40;53.20;;;;;;5083871;28;20669;-59
2021/01/02 09:12:03;;;;;;;5.90;5.30;;;17.40;53.40;;;;;;5084299;28;20261;-58
2021/01/02 09:14:30;;;;;;;5.07;4.60;;;17.40;53.40;;;;;;5066899;28;20239;-61
2021/01/02 09:17:07;;;;;;;5.30;4.80;;;17.40;53.50;;;;;;5084299;28;20395;-61
2021/01/02 09:19:33;;;;;;;5.40;4.90;;;17.40;53.40;;;;;;5084158;28;20268;-59
2021/01/02 09:21:59;;;;;;;5.85;5.25;;;17.40;53.30;;;;;;5084156;28;20642;-64
2021/01/02 09:24:24;;;;;;;6.20;5.60;;;17.40;53.40;;;;;;5083869;28;20261;-67
2021/01/02 09:26:50;;;;;;;6.35;5.40;;;17.40;53.40;;;;;;5084183;28;20247;-66
2021/01/02 09:29:17;;;;;;;5.78;5.18;;;17.40;53.50;;;;;;5084327;28;20205;-66
2021/01/02 09:31:43;;;;;;;6.60;5.20;;;17.40;53.60;;;;;;5084295;28;20620;-62
2021/01/02 09:34:09;;;;;;;6.18;5.57;;;17.40;53.80;;;;;;5084254;28;20166;-62
2021/01/02 09:36:34;;;;;;;6.13;5.57;;;17.30;53.80;;;;;;5084253;28;20273;-61
2021/01/02 09:39:00;;;;;;;6.35;5.72;;;17.30;53.70;;;;;;5083973;28;20198;-63
2021/01/02 09:41:26;;;;;;;8.27;5.68;;;17.20;54.20;;;;;;5083970;28;20182;-62
2021/01/02 09:43:55;;;;;;;8.10;6.40;;;17.20;54.40;;;;;;5083963;28;20282;-64
2021/01/02 09:46:24;;;;;;;6.68;6.03;;;17.10;54.60;;;;;;5084467;28;20624;-62
2021/01/02 09:48:51;;;;;;;7.88;6.00;;;17.10;54.80;;;;;;5083676;28;20197;-63
2021/01/02 09:51:17;;;;;;;8.57;7.00;;;17.20;54.90;;;;;;5065706;28;20223;-64
2021/01/02 09:53:43;;;;;;;7.93;6.43;;;17.20;54.90;;;;;;5065766;28;20174;-63
2021/01/02 09:56:08;;;;;;;9.05;6.63;;;17.20;55.00;;;;;;5083602;28;20188;-63
2021/01/02 09:58:34;;;;;;;7.38;6.63;;;17.10;54.80;;;;;;5084072;28;20267;-64
2021/01/02 10:01:00;;;;;;;8.32;7.20;;;17.10;55.00;;;;;;5084003;28;20181;-63
2021/01/02 10:03:25;;;;;;;8.93;7.13;;;17.10;55.10;;;;;;5083928;28;20174;-70
2021/01/02 10:05:51;;;;;;;8.20;7.32;;;17.10;54.90;;;;;;5083781;28;20196;-61
2021/01/02 10:08:17;;;;;;;7.47;6.35;;;17.10;55.00;;;;;;5083606;28;20231;-62
2021/01/02 10:10:42;;;;;;;8.63;6.50;;;17.10;55.30;;;;;;5085512;28;20192;-62
2021/01/02 10:13:08;;;;;;;8.88;7.07;;;17.10;55.10;;;;;;5087545;28;20256;-64
2021/01/02 10:15:33;;;;;;;9.07;6.82;;;17.20;55.20;;;;;;5086974;28;20555;-62
2021/01/02 10:17:59;;;;;;;7.07;6.25;;;17.20;55.10;;;;;;5086535;28;20178;-62
2021/01/02 10:20:24;;;;;;;8.48;6.75;;;17.30;55.00;;;;;;5068246;28;20607;-64
2021/01/02 10:22:50;;;;;;;7.40;6.60;;;17.40;54.80;;;;;;5086634;28;20173;-63
2021/01/02 10:25:16;;;;;;;8.57;6.30;;;17.40;54.70;;;;;;5086460;28;20243;-63
2021/01/02 10:27:41;;;;;;;7.68;6.60;;;17.50;54.60;;;;;;5086447;28;20194;-63
2021/01/02 10:30:09;;;;;;;6.82;6.13;;;17.50;54.60;;;;;;5086092;28;20205;-60
2021/01/02 10:32:34;;;;;;;8.82;6.25;;;17.50;54.60;;;;;;5084080;28;20206;-61
2021/01/02 10:35:00;;;;;;;7.18;5.60;;;17.50;54.70;;;;;;5068313;28;20544;-61
2021/01/02 10:37:27;;;;;;;7.47;6.15;;;17.40;54.70;;;;;;5086053;28;20232;-62
2021/01/02 10:39:52;;;;;;;6.78;5.68;;;17.40;54.80;;;;;;5068321;28;20174;-63
2021/01/02 10:42:22;;;;;;;6.50;5.82;;;17.40;54.80;;;;;;5086046;28;20279;-63
2021/01/02 10:44:47;;;;;;;6.90;5.97;;;17.40;54.90;;;;;;5083213;28;20181;-62
2021/01/02 10:47:16;;;;;;;8.18;6.10;;;17.50;54.90;;;;;;5086102;28;20601;-62
2021/01/02 10:49:42;;;;;;;6.85;5.80;;;17.50;54.80;;;;;;5064759;28;20201;-65
2021/01/02 10:52:07;;;;;;;8.05;6.22;;;17.50;54.70;;;;;;5085073;28;20593;-64
2021/01/02 10:54:33;;;;;;;5.90;5.40;;;17.50;54.70;;;;;;5085000;28;20657;-64
2021/01/02 10:56:59;;;;;;;5.95;5.45;;;17.50;54.70;;;;;;5085708;28;20182;-62
2021/01/02 10:59:24;;;;;;;7.25;6.20;;;17.50;54.80;;;;;;5071802;28;20185;-61
2021/01/02 11:01:52;;;;;;;7.57;5.75;;;17.50;54.80;;;;;;5100969;28;20230;-61
2021/01/02 11:04:19;;;;;;;7.95;6.63;;;17.50;54.80;;;;;;5089129;28;20169;-63
2021/01/02 11:06:45;;;;;;;8.48;6.57;;;17.40;54.80;;;;;;5070647;28;20637;-63
2021/01/02 11:09:13;;;;;;;7.28;6.53;;;17.30;54.80;;;;;;5088431;28;20197;-61
2021/01/02 11:11:38;;;;;;;7.88;6.82;;;17.30;54.80;;;;;;5107020;28;20248;-63
2021/01/02 11:14:04;;;;;;;7.22;6.10;;;17.30;54.70;;;;;;5106852;28;20184;-61
2021/01/02 11:16:41;;;;;;;7.32;6.63;;;17.30;54.60;;;;;;5094119;28;20185;-61
2021/01/02 11:19:28;;;;;;;7.85;6.95;;;17.40;54.50;;;;;;5069729;28;20192;-60
2021/01/02 11:21:59;;;;;;;8.27;7.05;;;17.40;54.30;;;;;;5066999;28;20174;-60
2021/01/02 11:24:30;;;;;;;7.70;6.80;;;17.40;54.20;;;;;;5085811;28;20162;-62
2021/01/02 11:26:58;;;;;;;8.32;7.50;;;17.40;54.10;;;;;;5085837;28;20170;-61
2021/01/02 11:29:24;;;;;;;9.02;8.10;;;17.40;54.10;;;;;;5085957;28;20318;-61
2021/01/02 11:31:50;;;;;;;8.00;7.20;;;17.30;54.00;;;;;;5085734;28;20174;-61
2021/01/02 11:34:16;;;;;;;9.43;7.82;;;17.20;54.00;;;;;;5103686;28;20236;-62
2021/01/02 11:36:42;;;;;;;9.05;7.90;;;17.30;54.00;;;;;;5105970;28;20168;-61
2021/01/02 11:39:08;;;;;;;8.45;7.57;;;17.30;54.00;;;;;;5106047;28;20180;-61
2021/01/02 11:41:38;;;;;;;8.77;6.97;;;17.20;53.90;;;;;;5105710;28;20173;-61
2021/01/02 11:44:05;;;;;;;9.85;7.97;;;17.20;53.70;;;;;;5087838;28;20226;-61
2021/01/02 11:46:36;;;;;;;9.32;7.75;;;17.30;53.70;;;;;;5105845;28;20169;-61
2021/01/02 11:49:02;;;;;;;8.93;7.47;;;17.30;53.60;;;;;;5088400;28;20584;-61
2021/01/02 11:51:27;;;;;;;10.23;8.50;;;17.30;53.50;;;;;;5105583;28;20545;-61
2021/01/02 11:53:53;;;;;;;9.32;7.63;;;17.30;53.50;;;;;;5105689;28;20177;-61
2021/01/02 11:56:22;;;;;;;8.45;7.55;;;17.30;53.60;;;;;;5105470;28;20169;-63
2021/01/02 11:58:48;;;;;;;8.90;7.95;;;17.20;53.50;;;;;;5105532;28;20658;-62
2021/01/02 12:01:14;;;;;;;9.07;7.43;;;17.20;53.60;;;;;;5105691;28;20169;-63
2021/01/02 12:03:39;;;;;;;9.18;8.25;;;17.10;53.60;;;;;;5105367;28;20175;-66
2021/01/02 12:06:05;;;;;;;9.48;8.48;;;17.10;53.60;;;;;;5105330;28;20542;-63
2021/01/02 12:08:31;;;;;;;8.02;7.20;;;17.20;53.70;;;;;;5085753;28;20548;-62
2021/01/02 12:10:56;;;;;;;9.45;7.65;;;17.20;54.00;;;;;;5084899;28;20246;-61
2021/01/02 12:13:22;;;;;;;8.00;7.20;;;17.10;54.00;;;;;;5084821;28;20185;-61
2021/01/02 12:15:51;;;;;;;11.93;8.13;;;17.20;54.30;;;;;;5084999;28;20526;-61
2021/01/02 12:18:17;;;;;;;9.70;7.80;;;17.10;54.00;;;;;;5085054;28;20178;-61
2021/01/02 12:20:42;;;;;;;10.48;8.80;;;17.20;54.00;;;;;;5066719;28;20646;-62
2021/01/02 12:23:08;;;;;;;9.73;8.15;;;17.20;53.90;;;;;;5085058;28;20699;-63
2021/01/02 12:25:33;;;;;;;10.82;8.02;;;17.20;53.80;;;;;;5084840;28;20177;-62
2021/01/02 12:27:59;;;;;;;10.73;8.02;;;17.10;53.90;;;;;;5084567;28;20198;-63
2021/01/02 12:30:28;;;;;;;9.90;8.25;;;17.10;53.90;;;;;;5084337;28;20543;-60
2021/01/02 12:32:55;;;;;;;8.05;7.13;;;17.10;54.00;;;;;;5084319;28;20187;-61
2021/01/02 12:35:21;;;;;;;10.65;8.35;;;17.10;53.90;;;;;;5084603;28;20227;-61
2021/01/02 12:37:46;;;;;;;10.07;7.25;;;17.20;53.80;;;;;;5084727;28;20177;-62
2021/01/02 12:40:12;;;;;;;10.30;8.57;;;17.30;53.70;;;;;;5084164;28;20177;-60
2021/01/02 12:42:38;;;;;;;9.95;7.95;;;17.40;53.60;;;;;;5084651;28;20174;-60
2021/01/02 12:45:06;;;;;;;9.25;7.70;;;17.40;53.40;;;;;;5084269;28;20173;-63
2021/01/02 12:47:32;;;;;;;9.95;7.50;;;17.50;53.40;;;;;;5084402;28;20224;-62
2021/01/02 12:49:57;;;;;;;10.00;7.70;;;17.50;53.30;;;;;;5083682;28;20678;-61
2021/01/02 12:52:23;;;;;;;10.38;7.78;;;17.50;53.10;;;;;;5084307;28;20283;-65
2021/01/02 12:54:48;;;;;;;9.30;7.75;;;17.60;53.30;;;;;;5084281;28;20630;-63
2021/01/02 12:57:14;;;;;;;9.85;7.20;;;17.50;53.30;;;;;;5084245;28;20169;-61
2021/01/02 12:59:39;;;;;;;8.63;7.40;;;17.50;53.60;;;;;;5084238;28;20235;-63
2021/01/02 13:02:08;;;;;;;10.70;7.55;;;17.50;53.70;;;;;;5084247;28;20169;-63